Time,TemperatureF,DewpointF,PressureIn,WindDirection,WindDirectionDegrees,WindSpeedMPH,WindSpeedGustMPH,Humidity,HourlyPrecipIn,Conditions,Clouds,dailyrainin,SoftwareType,DateUTC
2013-02-28 00:04:00,49.5,45.0,30.35,SE,132,3.0,3.0,84,0.00,,,0.00,weatherlink.com 1.10,2013-02-28 08:04:00,
2013-02-28 00:19:00,48.9,45.0,30.36,SE,131,0.0,2.0,85,0.00,,,0.00,weatherlink.com 1.10,2013-02-28 08:19:00,
2013-02-28 00:34:00,48.9,45.0,30.36,ESE,115,0.0,0.0,85,0.00,,,0.00,weatherlink.com 1.10,2013-02-28 08:34:00,
2013-02-28 00:49:00,49.0,45.0,30.35,SE,129,0.0,0.0,85,0.00,,,0.00,weatherlink.com 1.10,2013-02-28 08:49:00,
2013-02-28 01:04:00,49.0,45.0,30.36,NW,307,0.0,0.0,85,0.00,,,0.00,weatherlink.com 1.10,2013-02-28 09:04:00,
2013-02-28 01:19:00,49.0,45.0,30.36,NE,54,0.0,0.0,85,0.00,,,0.00,weatherlink.com 1.10,2013-02-28 09:19:00,
2013-02-28 01:34:00,48.8,45.0,30.36,SSE,153,2.0,2.0,86,0.00,,,0.00,weatherlink.com 1.10,2013-02-28 09:34:00,
2013-02-28 01:49:00,49.0,45.0,30.36,SW,236,2.0,2.0,86,0.00,,,0.00,weatherlink.com 1.10,2013-02-28 09:49:00,
2013-02-28 02:04:00,49.0,45.0,30.36,SW,218,0.0,4.0,87,0.00,,,0.00,weatherlink.com 1.10,2013-02-28 10:04:00,
2013-02-28 02:19:00,48.9,46.0,30.37,SSE,165,0.0,4.0,88,0.00,,,0.00,weatherlink.com 1.10,2013-02-28 10:19:00,
2013-02-28 02:34:00,49.2,46.0,30.36,SE,146,0.0,4.0,88,0.00,,,0.00,weatherlink.com 1.10,2013-02-28 10:34:00,
2013-02-28 02:49:00,49.6,47.0,30.36,ESE,123,0.0,4.0,89,0.00,,,0.00,weatherlink.com 1.10,2013-02-28 10:49:00,
2013-02-28 03:04:00,50.0,47.0,30.36,SSE,156,0.0,3.0,89,0.00,,,0.00,weatherlink.com 1.10,2013-02-28 11:04:00,
2013-02-28 03:19:00,49.8,46.0,30.36,South,173,0.0,2.0,88,0.00,,,0.00,weatherlink.com 1.10,2013-02-28 11:19:00,
2013-02-28 03:34:00,49.1,46.0,30.36,South,187,0.0,3.0,88,0.00,,,0.00,weatherlink.com 1.10,2013-02-28 11:34:00,
2013-02-28 03:50:00,48.9,46.0,30.36,SE,142,1.0,7.0,89,0.00,,,0.00,weatherlink.com 1.10,2013-02-28 11:50:00,
2013-02-28 04:05:00,48.8,46.0,30.36,SE,145,0.0,4.0,90,0.00,,,0.00,weatherlink.com 1.10,2013-02-28 12:05:00,
2013-02-28 04:20:00,48.9,46.0,30.36,SE,139,0.0,3.0,91,0.00,,,0.00,weatherlink.com 1.10,2013-02-28 12:20:00,
2013-02-28 04:35:00,49.0,47.0,30.36,SSE,157,0.0,3.0,91,0.00,,,0.00,weatherlink.com 1.10,2013-02-28 12:35:00,
2013-02-28 04:50:00,48.4,46.0,30.36,NNE,26,0.0,1.0,90,0.00,,,0.00,weatherlink.com 1.10,2013-02-28 12:50:00,
2013-02-28 05:05:00,48.2,46.0,30.37,SSE,152,0.0,1.0,91,0.00,,,0.00,weatherlink.com 1.10,2013-02-28 13:05:00,
2013-02-28 05:20:00,47.9,46.0,30.38,ESE,103,0.0,1.0,91,0.00,,,0.00,weatherlink.com 1.10,2013-02-28 13:20:00,
2013-02-28 05:35:00,47.7,45.0,30.39,SSE,156,0.0,1.0,91,0.00,,,0.00,weatherlink.com 1.10,2013-02-28 13:35:00,
2013-02-28 05:50:00,47.8,45.0,30.39,SW,223,0.0,3.0,91,0.00,,,0.00,weatherlink.com 1.10,2013-02-28 13:50:00,
2013-02-28 06:05:00,48.1,46.0,30.40,SSE,149,1.0,2.0,91,0.00,,,0.00,weatherlink.com 1.10,2013-02-28 14:05:00,
2013-02-28 06:20:00,48.4,46.0,30.39,South,181,0.0,2.0,91,0.00,,,0.00,weatherlink.com 1.10,2013-02-28 14:20:00,
2013-02-28 06:35:00,48.9,46.0,30.39,ESE,103,0.0,3.0,91,0.00,,,0.00,weatherlink.com 1.10,2013-02-28 14:35:00,
2013-02-28 06:50:00,48.9,46.0,30.39,ESE,108,2.0,4.0,91,0.00,,,0.00,weatherlink.com 1.10,2013-02-28 14:50:00,
2013-02-28 07:05:00,49.4,47.0,30.40,SSW,200,0.0,3.0,90,0.00,,,0.00,weatherlink.com 1.10,2013-02-28 15:05:00,
2013-02-28 07:20:00,49.7,47.0,30.40,ESE,113,1.0,1.0,91,0.00,,,0.00,weatherlink.com 1.10,2013-02-28 15:20:00,
2013-02-28 07:35:00,51.4,48.0,30.40,SE,125,1.0,2.0,89,0.00,,,0.00,weatherlink.com 1.10,2013-02-28 15:35:00,
2013-02-28 07:50:00,53.9,50.0,30.40,South,187,0.0,1.0,86,0.00,,,0.00,weatherlink.com 1.10,2013-02-28 15:50:00,
2013-02-28 08:05:00,54.6,50.0,30.41,SSW,200,0.0,2.0,83,0.00,,,0.00,weatherlink.com 1.10,2013-02-28 16:05:00,
2013-02-28 08:20:00,54.1,49.0,30.41,SSW,204,0.0,2.0,82,0.00,,,0.00,weatherlink.com 1.10,2013-02-28 16:20:00,
2013-02-28 08:35:00,53.4,49.0,30.42,SW,221,0.0,3.0,84,0.00,,,0.00,weatherlink.com 1.10,2013-02-28 16:35:00,
2013-02-28 08:50:00,54.8,49.0,30.42,SSW,212,0.0,4.0,82,0.00,,,0.00,weatherlink.com 1.10,2013-02-28 16:50:00,
2013-02-28 09:05:00,55.5,50.0,30.43,WSW,240,0.0,3.0,81,0.00,,,0.00,weatherlink.com 1.10,2013-02-28 17:05:00,
2013-02-28 09:20:00,56.1,50.0,30.43,WSW,245,0.0,4.0,79,0.00,,,0.00,weatherlink.com 1.10,2013-02-28 17:20:00,
2013-02-28 09:35:00,57.4,51.0,30.43,SW,235,5.0,5.0,78,0.00,,,0.00,weatherlink.com 1.10,2013-02-28 17:35:00,
2013-02-28 09:50:00,56.7,50.0,30.43,WSW,246,3.0,5.0,79,0.00,,,0.00,weatherlink.com 1.10,2013-02-28 17:50:00,
2013-02-28 10:05:00,57.4,51.0,30.44,SW,218,5.0,7.0,78,0.00,,,0.00,weatherlink.com 1.10,2013-02-28 18:05:00,
2013-02-28 10:20:00,57.5,51.0,30.43,SSW,198,3.0,6.0,79,0.00,,,0.00,weatherlink.com 1.10,2013-02-28 18:20:00,
2013-02-28 10:36:00,58.1,51.0,30.43,SW,235,3.0,6.0,77,0.00,,,0.00,weatherlink.com 1.10,2013-02-28 18:36:00,
2013-02-28 10:51:00,59.4,51.0,30.43,West,259,5.0,7.0,73,0.00,,,0.00,weatherlink.com 1.10,2013-02-28 18:51:00,
2013-02-28 11:06:00,60.2,51.0,30.42,SW,216,0.0,6.0,71,0.00,,,0.00,weatherlink.com 1.10,2013-02-28 19:06:00,
2013-02-28 11:36:00,61.8,51.0,30.41,SSW,212,3.0,5.0,68,0.00,,,0.00,weatherlink.com 1.10,2013-02-28 19:36:00,
2013-02-28 11:51:00,62.2,51.0,30.41,SSW,205,2.0,7.0,68,0.00,,,0.00,weatherlink.com 1.10,2013-02-28 19:51:00,
2013-02-28 12:06:00,62.9,52.0,30.41,SW,225,3.0,7.0,67,0.00,,,0.00,weatherlink.com 1.10,2013-02-28 20:06:00,
2013-02-28 12:21:00,61.0,52.0,30.41,WNW,285,1.0,12.0,72,0.00,,,0.00,weatherlink.com 1.10,2013-02-28 20:21:00,
2013-02-28 12:36:00,59.2,51.0,30.41,SE,139,4.0,10.0,75,0.00,,,0.00,weatherlink.com 1.10,2013-02-28 20:36:00,
2013-02-28 12:51:00,59.7,52.0,30.41,SSE,162,4.0,10.0,75,0.00,,,0.00,weatherlink.com 1.10,2013-02-28 20:51:00,
2013-02-28 13:06:00,60.2,52.0,30.41,South,169,4.0,7.0,74,0.00,,,0.00,weatherlink.com 1.10,2013-02-28 21:06:00,
2013-02-28 13:21:00,61.1,52.0,30.39,SSE,156,4.0,8.0,71,0.00,,,0.00,weatherlink.com 1.10,2013-02-28 21:21:00,
2013-02-28 13:36:00,61.6,52.0,30.38,South,183,5.0,11.0,71,0.00,,,0.00,weatherlink.com 1.10,2013-02-28 21:36:00,
2013-02-28 13:51:00,62.9,53.0,30.38,SE,134,5.0,9.0,70,0.00,,,0.00,weatherlink.com 1.10,2013-02-28 21:51:00,
2013-02-28 14:06:00,60.0,52.0,30.38,SSW,212,6.0,10.0,74,0.00,,,0.00,weatherlink.com 1.10,2013-02-28 22:06:00,
2013-02-28 14:21:00,59.5,52.0,30.38,SE,129,5.0,12.0,76,0.00,,,0.00,weatherlink.com 1.10,2013-02-28 22:21:00,
2013-02-28 14:36:00,59.4,52.0,30.38,SE,140,5.0,11.0,77,0.00,,,0.00,weatherlink.com 1.10,2013-02-28 22:36:00,
2013-02-28 14:51:00,58.4,52.0,30.38,SSE,165,10.0,11.0,78,0.00,,,0.00,weatherlink.com 1.10,2013-02-28 22:51:00,
2013-02-28 15:06:00,58.5,52.0,30.38,SSE,148,6.0,13.0,78,0.00,,,0.00,weatherlink.com 1.10,2013-02-28 23:06:00,
2013-02-28 15:36:00,59.9,53.0,30.39,SSE,162,4.0,11.0,77,0.00,,,0.00,weatherlink.com 1.10,2013-02-28 23:36:00,
2013-02-28 15:51:00,60.9,53.0,30.38,South,182,5.0,10.0,74,0.00,,,0.00,weatherlink.com 1.10,2013-02-28 23:51:00,
2013-02-28 16:06:00,61.9,53.0,30.37,SE,142,6.0,8.0,72,0.00,,,0.00,weatherlink.com 1.10,2013-03-01 00:06:00,
2013-02-28 16:21:00,62.2,53.0,30.36,SSE,149,4.0,9.0,71,0.00,,,0.00,weatherlink.com 1.10,2013-03-01 00:21:00,
2013-02-28 16:36:00,62.8,54.0,30.37,South,172,4.0,6.0,72,0.00,,,0.00,weatherlink.com 1.10,2013-03-01 00:36:00,
2013-02-28 16:51:00,62.6,53.0,30.36,SSE,163,1.0,7.0,70,0.00,,,0.00,weatherlink.com 1.10,2013-03-01 00:51:00,
2013-02-28 17:06:00,61.4,52.0,30.36,SE,146,3.0,7.0,72,0.00,,,0.00,weatherlink.com 1.10,2013-03-01 01:06:00,
2013-02-28 17:21:00,58.7,52.0,30.37,South,174,2.0,8.0,78,0.00,,,0.00,weatherlink.com 1.10,2013-03-01 01:21:00,
2013-02-28 17:36:00,57.1,51.0,30.37,SSW,200,2.0,8.0,80,0.00,,,0.00,weatherlink.com 1.10,2013-03-01 01:36:00,
2013-02-28 17:51:00,55.8,51.0,30.37,South,181,3.0,8.0,83,0.00,,,0.00,weatherlink.com 1.10,2013-03-01 01:51:00,
2013-02-28 18:06:00,54.7,50.0,30.38,SSE,156,5.0,6.0,85,0.00,,,0.00,weatherlink.com 1.10,2013-03-01 02:06:00,
2013-02-28 18:21:00,53.8,50.0,30.38,SSE,167,0.0,2.0,87,0.00,,,0.00,weatherlink.com 1.10,2013-03-01 02:21:00,
2013-02-28 18:36:00,53.3,50.0,30.38,SSE,166,4.0,6.0,88,0.00,,,0.00,weatherlink.com 1.10,2013-03-01 02:36:00,
2013-02-28 18:51:00,53.0,50.0,30.39,SE,129,0.0,4.0,89,0.00,,,0.00,weatherlink.com 1.10,2013-03-01 02:51:00,
2013-02-28 19:06:00,52.9,50.0,30.39,SE,139,0.0,2.0,90,0.00,,,0.00,weatherlink.com 1.10,2013-03-01 03:06:00,
2013-02-28 19:21:00,53.1,50.0,30.39,ESE,123,0.0,1.0,89,0.00,,,0.00,weatherlink.com 1.10,2013-03-01 03:21:00,
2013-02-28 19:36:00,53.1,50.0,30.40,South,169,0.0,1.0,88,0.00,,,0.00,weatherlink.com 1.10,2013-03-01 03:36:00,
2013-02-28 19:51:00,52.9,50.0,30.39,ESE,123,0.0,2.0,89,0.00,,,0.00,weatherlink.com 1.10,2013-03-01 03:51:00,
2013-02-28 20:06:00,53.2,50.0,30.39,SE,131,0.0,1.0,88,0.00,,,0.00,weatherlink.com 1.10,2013-03-01 04:06:00,
2013-02-28 20:21:00,52.7,49.0,30.40,SSE,165,0.0,2.0,88,0.00,,,0.00,weatherlink.com 1.10,2013-03-01 04:21:00,
2013-02-28 20:36:00,52.3,50.0,30.40,SSW,200,0.0,1.0,90,0.00,,,0.00,weatherlink.com 1.10,2013-03-01 04:36:00,
2013-02-28 20:51:00,52.0,49.0,30.40,WSW,239,0.0,1.0,90,0.00,,,0.00,weatherlink.com 1.10,2013-03-01 04:51:00,
2013-02-28 21:06:00,51.4,49.0,30.40,SW,229,0.0,1.0,91,0.00,,,0.00,weatherlink.com 1.10,2013-03-01 05:06:00,
2013-02-28 21:21:00,51.1,49.0,30.41,South,183,0.0,1.0,91,0.00,,,0.00,weatherlink.com 1.10,2013-03-01 05:21:00,
2013-02-28 21:36:00,50.9,49.0,30.41,SE,139,0.0,1.0,92,0.00,,,0.00,weatherlink.com 1.10,2013-03-01 05:36:00,
2013-02-28 21:51:00,50.9,49.0,30.41,SSE,159,0.0,2.0,93,0.00,,,0.00,weatherlink.com 1.10,2013-03-01 05:51:00,
2013-02-28 22:06:00,50.7,49.0,30.42,SSE,164,0.0,1.0,93,0.00,,,0.00,weatherlink.com 1.10,2013-03-01 06:06:00,
2013-02-28 22:21:00,50.4,49.0,30.42,SE,124,0.0,3.0,93,0.00,,,0.00,weatherlink.com 1.10,2013-03-01 06:21:00,
2013-02-28 22:36:00,50.3,49.0,30.42,SSE,147,0.0,2.0,94,0.00,,,0.00,weatherlink.com 1.10,2013-03-01 06:36:00,
2013-02-28 22:51:00,50.4,49.0,30.42,SSE,150,2.0,3.0,94,0.00,,,0.00,weatherlink.com 1.10,2013-03-01 06:51:00,
2013-02-28 23:06:00,50.2,49.0,30.42,SSE,149,0.0,1.0,94,0.00,,,0.00,weatherlink.com 1.10,2013-03-01 07:06:00,
2013-02-28 23:22:00,50.0,49.0,30.41,SE,136,0.0,0.0,95,0.00,,,0.00,weatherlink.com 1.10,2013-03-01 07:22:00,
2013-02-28 23:36:00,49.5,48.0,30.41,SE,139,0.0,0.0,94,0.00,,,0.00,weatherlink.com 1.10,2013-03-01 07:36:00,
2013-02-28 23:51:00,49.8,49.0,30.41,East,101,2.0,2.0,95,0.00,,,0.00,weatherlink.com 1.10,2013-03-01 07:51:00,